createdAt,value
2022-12-08T00:01:10.271Z,9.23
2022-12-08T00:03:37.848Z,8.57
2022-12-08T00:06:25.225Z,8.97
2022-12-08T00:09:10.604Z,7.70
2022-12-08T00:11:37.372Z,9.60
2022-12-08T00:14:04.189Z,8.53
2022-12-08T00:16:30.977Z,8.20
2022-12-08T00:18:57.683Z,8.60
2022-12-08T00:21:28.350Z,6.67
2022-12-08T00:23:56.082Z,7.63
2022-12-08T00:26:23.004Z,6.83
2022-12-08T00:28:49.788Z,6.83
2022-12-08T00:31:16.639Z,7.10
2022-12-08T00:33:43.430Z,6.70
2022-12-08T00:36:12.875Z,7.83
2022-12-08T00:38:40.127Z,7.40
2022-12-08T00:41:15.467Z,8.10
2022-12-08T00:43:42.760Z,8.90
2022-12-08T00:46:09.752Z,9.30
2022-12-08T00:48:36.543Z,7.47
2022-12-08T00:51:03.182Z,7.83
2022-12-08T00:53:31.228Z,8.47
2022-12-08T00:55:58.084Z,7.17
2022-12-08T00:58:24.778Z,6.87
2022-12-08T01:00:51.500Z,8.97
2022-12-08T01:03:18.318Z,6.13
2022-12-08T01:05:45.059Z,8.90
2022-12-08T01:08:11.809Z,6.37
2022-12-08T01:10:39.473Z,8.07
2022-12-08T01:13:06.302Z,7.77
2022-12-08T01:15:32.982Z,8.00
2022-12-08T01:17:59.657Z,9.23
2022-12-08T01:20:26.300Z,8.13
2022-12-08T01:22:52.937Z,7.43
2022-12-08T01:25:19.582Z,8.13
2022-12-08T01:27:49.219Z,10.03
2022-12-08T01:30:16.039Z,8.40
2022-12-08T01:32:42.738Z,10.83
2022-12-08T01:35:09.553Z,7.70
2022-12-08T01:37:36.514Z,6.77
2022-12-08T01:40:03.993Z,7.70
2022-12-08T01:42:34.403Z,6.90
2022-12-08T01:45:03.369Z,11.77
2022-12-08T01:47:41.600Z,9.43
2022-12-08T01:50:11.560Z,7.83
2022-12-08T01:52:40.309Z,8.43
2022-12-08T01:55:20.242Z,8.80
2022-12-08T01:57:52.786Z,7.70
2022-12-08T02:00:21.584Z,6.43
2022-12-08T02:02:58.961Z,6.57
2022-12-08T02:05:33.856Z,8.17
2022-12-08T02:08:04.513Z,9.60
2022-12-08T02:10:37.870Z,7.27
2022-12-08T02:13:06.654Z,7.87
2022-12-08T02:15:38.977Z,7.53
2022-12-08T02:18:14.594Z,8.67
2022-12-08T02:20:54.864Z,8.10
2022-12-08T02:23:39.930Z,9.13
2022-12-08T02:26:28.144Z,8.13
2022-12-08T02:29:15.894Z,7.20
2022-12-08T02:32:08.753Z,8.00
2022-12-08T02:34:44.331Z,7.57
2022-12-08T02:37:28.035Z,7.67
2022-12-08T02:40:15.251Z,9.30
2022-12-08T02:42:48.785Z,9.17
2022-12-08T02:45:28.612Z,8.97
2022-12-08T02:47:55.635Z,9.23
2022-12-08T02:50:22.481Z,7.13
2022-12-08T02:52:49.115Z,8.30
2022-12-08T02:55:34.369Z,9.27
2022-12-08T02:58:04.011Z,8.60
2022-12-08T03:00:56.055Z,9.77
2022-12-08T03:03:41.432Z,8.13
2022-12-08T03:06:46.997Z,7.50
2022-12-08T03:09:35.575Z,9.67
2022-12-08T03:12:15.946Z,8.43
2022-12-08T03:14:46.837Z,8.47
2022-12-08T03:17:16.803Z,7.60
2022-12-08T03:19:45.832Z,10.60
2022-12-08T03:22:14.983Z,8.00
2022-12-08T03:24:45.101Z,8.90
2022-12-08T03:27:20.997Z,9.20
2022-12-08T03:29:53.031Z,10.00
2022-12-08T03:32:25.450Z,9.20
2022-12-08T03:34:54.306Z,9.13
2022-12-08T03:37:21.388Z,9.17
2022-12-08T03:39:48.172Z,11.60
2022-12-08T03:42:14.761Z,9.60
2022-12-08T03:44:41.419Z,9.40
2022-12-08T03:47:08.075Z,10.97
2022-12-08T03:49:40.782Z,8.13
2022-12-08T03:52:07.439Z,9.17
2022-12-08T03:54:34.138Z,14.63
2022-12-08T03:57:00.917Z,7.90
2022-12-08T03:59:27.598Z,11.27
2022-12-08T04:01:54.309Z,9.20
2022-12-08T04:04:21.060Z,8.93
2022-12-08T04:06:47.777Z,8.80
2022-12-08T04:09:14.452Z,8.87
2022-12-08T04:11:41.143Z,9.43
2022-12-08T04:14:07.814Z,9.37
2022-12-08T04:16:34.880Z,8.50
2022-12-08T04:19:01.600Z,7.30
2022-12-08T04:21:28.394Z,9.63
2022-12-08T04:24:00.843Z,8.30
2022-12-08T04:26:28.371Z,8.13
2022-12-08T04:28:55.057Z,9.10
2022-12-08T04:31:21.794Z,9.03
2022-12-08T04:33:48.654Z,7.10
2022-12-08T04:36:15.279Z,9.50
2022-12-08T04:38:44.898Z,9.03
2022-12-08T04:41:11.615Z,10.00
2022-12-08T04:43:38.420Z,7.97
2022-12-08T04:46:09.008Z,8.73
2022-12-08T04:48:38.371Z,8.47
2022-12-08T04:51:05.524Z,8.87
2022-12-08T04:53:32.394Z,8.73
2022-12-08T04:56:01.426Z,10.40
2022-12-08T04:58:28.073Z,9.87
2022-12-08T05:00:54.807Z,9.57
2022-12-08T05:03:28.103Z,9.00
2022-12-08T05:05:55.376Z,11.63
2022-12-08T05:08:22.068Z,9.23
2022-12-08T05:10:48.699Z,9.13
2022-12-08T05:13:15.326Z,11.13
2022-12-08T05:15:41.951Z,9.53
2022-12-08T05:18:08.706Z,8.57
2022-12-08T05:20:35.948Z,9.03
2022-12-08T05:23:02.629Z,9.43
2022-12-08T05:25:29.347Z,8.20
2022-12-08T05:28:17.545Z,8.20
2022-12-08T05:30:42.634Z,11.50
2022-12-08T05:33:09.374Z,7.47
2022-12-08T05:35:35.975Z,11.27
2022-12-08T05:38:02.625Z,10.57
2022-12-08T05:40:29.231Z,9.37
2022-12-08T05:42:55.907Z,9.63
2022-12-08T05:45:22.628Z,7.60
2022-12-08T05:47:49.226Z,10.63
2022-12-08T05:50:15.995Z,8.60
2022-12-08T05:52:42.652Z,11.40
2022-12-08T05:55:09.765Z,10.77
2022-12-08T05:57:36.399Z,10.93
2022-12-08T06:00:04.223Z,13.33
2022-12-08T06:02:31.296Z,10.17
2022-12-08T06:04:58.028Z,16.23
2022-12-08T06:07:24.712Z,10.13
2022-12-08T06:09:51.351Z,10.07
2022-12-08T06:12:18.008Z,9.80
2022-12-08T06:14:44.853Z,11.60
2022-12-08T06:17:11.528Z,10.93
2022-12-08T06:19:38.206Z,14.17
2022-12-08T06:22:04.854Z,12.40
2022-12-08T06:24:31.503Z,12.93
2022-12-08T06:26:58.154Z,10.70
2022-12-08T06:29:24.918Z,10.97
2022-12-08T06:31:52.757Z,13.60
2022-12-08T06:34:19.491Z,11.60
2022-12-08T06:36:46.215Z,11.30
2022-12-08T06:39:12.839Z,12.60
2022-12-08T06:41:59.468Z,9.67
2022-12-08T06:44:26.110Z,11.53
2022-12-08T06:46:52.762Z,11.10
2022-12-08T06:49:19.480Z,13.77
2022-12-08T06:51:46.311Z,10.53
2022-12-08T06:54:12.909Z,12.83
2022-12-08T06:56:39.592Z,11.70
2022-12-08T06:59:06.238Z,11.90
2022-12-08T07:01:32.945Z,13.37
2022-12-08T07:03:59.752Z,10.03
2022-12-08T07:06:26.502Z,12.53
2022-12-08T07:08:53.265Z,9.40
2022-12-08T07:11:22.261Z,9.83
2022-12-08T07:13:49.968Z,11.47
2022-12-08T07:16:16.799Z,8.13
2022-12-08T07:18:44.110Z,11.80
2022-12-08T07:21:13.235Z,9.93
2022-12-08T07:23:39.967Z,13.43
2022-12-08T07:26:10.278Z,11.07
2022-12-08T07:28:39.665Z,14.17
2022-12-08T07:31:08.470Z,13.23
2022-12-08T07:33:36.141Z,13.93
2022-12-08T07:36:05.375Z,13.87
2022-12-08T07:38:32.658Z,13.50
2022-12-08T07:40:59.342Z,19.57
2022-12-08T07:43:26.010Z,14.97
2022-12-08T07:45:52.831Z,15.97
2022-12-08T07:48:19.729Z,12.10
2022-12-08T07:50:47.420Z,12.17
2022-12-08T07:53:14.639Z,12.80
2022-12-08T07:55:44.564Z,13.07
2022-12-08T07:58:11.827Z,13.10
2022-12-08T08:00:38.626Z,14.40
2022-12-08T08:03:06.157Z,14.40
2022-12-08T08:05:33.020Z,13.33
2022-12-08T08:07:59.724Z,12.27
2022-12-08T08:10:26.599Z,14.60
2022-12-08T08:12:53.423Z,14.20
2022-12-08T08:15:21.377Z,13.70
2022-12-08T08:17:51.666Z,15.00
2022-12-08T08:20:19.828Z,14.63
2022-12-08T08:22:50.842Z,12.73
2022-12-08T08:25:19.005Z,17.03
2022-12-08T08:27:46.599Z,15.27
2022-12-08T08:30:20.010Z,13.50
2022-12-08T08:32:48.584Z,12.57
2022-12-08T08:35:15.532Z,14.30
2022-12-08T08:37:47.219Z,12.30
2022-12-08T08:40:16.160Z,13.27
2022-12-08T08:42:42.853Z,14.37
2022-12-08T08:45:09.866Z,11.80
2022-12-08T08:47:36.644Z,12.77
2022-12-08T08:50:04.618Z,11.97
2022-12-08T08:52:31.763Z,12.70
2022-12-08T08:54:58.492Z,14.07
2022-12-08T08:57:26.076Z,13.37
2022-12-08T08:59:53.552Z,9.93
2022-12-08T09:02:21.143Z,12.13
2022-12-08T09:04:48.199Z,20.23
2022-12-08T09:07:16.040Z,12.40
2022-12-08T09:09:43.122Z,12.37
2022-12-08T09:12:10.351Z,12.60
2022-12-08T09:14:37.098Z,13.50
2022-12-08T09:17:04.180Z,10.03
2022-12-08T09:19:30.903Z,10.97
2022-12-08T09:22:00.253Z,11.83
2022-12-08T09:24:27.140Z,10.10
2022-12-08T09:26:53.879Z,11.77
2022-12-08T09:29:20.601Z,11.10
2022-12-08T09:31:47.436Z,14.20
2022-12-08T09:34:14.278Z,14.67
2022-12-08T09:36:40.956Z,12.33
2022-12-08T09:39:08.368Z,12.10
2022-12-08T09:41:43.275Z,8.87
2022-12-08T09:44:34.200Z,9.37
2022-12-08T09:47:03.430Z,11.53
2022-12-08T09:49:41.891Z,10.07
2022-12-08T09:52:21.254Z,11.27
2022-12-08T09:54:48.061Z,10.23
2022-12-08T09:57:19.515Z,9.33
2022-12-08T09:59:52.670Z,10.13
2022-12-08T10:02:24.975Z,8.23
2022-12-08T10:04:55.156Z,9.23
2022-12-08T10:07:39.318Z,9.93
2022-12-08T10:10:31.255Z,8.53
2022-12-08T10:13:19.204Z,9.23
2022-12-08T10:15:58.209Z,8.27
2022-12-08T10:18:31.266Z,8.13
2022-12-08T10:21:13.382Z,7.70
2022-12-08T10:23:44.423Z,7.00
2022-12-08T10:26:16.912Z,6.77
2022-12-08T10:28:45.380Z,7.23
2022-12-08T10:31:20.528Z,8.23
2022-12-08T10:33:52.536Z,8.50
2022-12-08T10:36:19.261Z,8.53
2022-12-08T10:38:45.964Z,6.53
2022-12-08T10:41:13.632Z,8.30
2022-12-08T10:43:49.457Z,7.33
2022-12-08T10:46:22.735Z,7.00
2022-12-08T10:48:50.992Z,6.90
2022-12-08T10:51:23.469Z,7.50
2022-12-08T10:53:50.070Z,6.70
2022-12-08T10:56:17.454Z,8.13
2022-12-08T10:58:45.838Z,6.23
2022-12-08T11:01:21.405Z,7.03
2022-12-08T11:03:51.051Z,5.03
2022-12-08T11:06:36.583Z,6.13
2022-12-08T11:09:15.661Z,6.60
2022-12-08T11:11:48.047Z,8.00
2022-12-08T11:14:26.682Z,5.17
2022-12-08T11:17:03.758Z,5.43
2022-12-08T11:19:30.470Z,6.83
2022-12-08T11:21:57.188Z,6.93
2022-12-08T11:24:25.524Z,5.40
2022-12-08T11:27:01.125Z,6.40
2022-12-08T11:29:30.951Z,6.17
2022-12-08T11:32:02.388Z,10.93
2022-12-08T11:34:44.017Z,6.17
2022-12-08T11:37:34.503Z,8.07
2022-12-08T11:40:07.122Z,5.73
2022-12-08T11:42:43.461Z,5.77
2022-12-08T11:45:21.814Z,5.60
2022-12-08T11:48:13.166Z,4.90
2022-12-08T11:50:50.691Z,7.07
2022-12-08T11:53:23.577Z,6.43
2022-12-08T11:55:55.135Z,5.27
2022-12-08T11:58:25.502Z,5.10
2022-12-08T12:00:52.749Z,5.43
2022-12-08T12:03:46.284Z,6.17
2022-12-08T12:06:53.256Z,6.23
2022-12-08T12:09:33.819Z,5.90
2022-12-08T12:12:19.191Z,7.00
2022-12-08T12:15:11.522Z,6.17
2022-12-08T12:17:53.114Z,5.87
2022-12-08T12:20:34.268Z,5.47
2022-12-08T12:23:16.555Z,5.50
2022-12-08T12:26:01.040Z,5.50
2022-12-08T12:28:36.513Z,6.50
2022-12-08T12:31:08.115Z,6.30
2022-12-08T12:33:36.100Z,5.27
2022-12-08T12:36:08.829Z,5.30
2022-12-08T12:38:55.193Z,5.43
2022-12-08T12:41:28.492Z,6.10
2022-12-08T12:44:18.305Z,6.23
2022-12-08T12:46:50.841Z,6.77
2022-12-08T12:49:39.637Z,6.33
2022-12-08T12:52:15.442Z,6.70
2022-12-08T12:54:51.696Z,5.53
2022-12-08T12:57:18.392Z,6.00
2022-12-08T13:00:06.565Z,6.50
2022-12-08T13:02:36.467Z,5.30
2022-12-08T13:05:31.540Z,6.20
2022-12-08T13:08:22.837Z,4.90
2022-12-08T13:11:10.762Z,4.97
2022-12-08T13:13:39.059Z,5.03
2022-12-08T13:16:19.604Z,4.80
2022-12-08T13:18:52.277Z,5.33
2022-12-08T13:21:21.588Z,8.77
2022-12-08T13:23:52.217Z,5.00
2022-12-08T13:26:20.461Z,5.53
2022-12-08T13:29:01.657Z,5.67
2022-12-08T13:31:41.647Z,6.30
2022-12-08T13:34:33.384Z,3.47
2022-12-08T13:37:22.178Z,3.93
2022-12-08T13:39:55.464Z,4.67
2022-12-08T13:42:31.209Z,6.13
2022-12-08T13:45:36.255Z,5.10
2022-12-08T13:53:22.442Z,5.47
2022-12-08T13:57:29.689Z,2.83
2022-12-08T14:00:01.677Z,3.43
2022-12-08T14:02:47.109Z,7.37
2022-12-08T14:05:19.024Z,3.73
2022-12-08T14:07:49.587Z,4.73
2022-12-08T14:10:44.467Z,4.30
2022-12-08T14:13:13.027Z,4.97
2022-12-08T14:15:40.499Z,4.60
2022-12-08T14:18:25.760Z,4.73
2022-12-08T14:21:21.666Z,2.87
2022-12-08T14:23:48.791Z,4.00
2022-12-08T14:26:15.548Z,9.87
2022-12-08T14:28:45.178Z,3.27
2022-12-08T14:31:14.389Z,4.17
2022-12-08T14:33:41.523Z,4.03
2022-12-08T14:36:09.947Z,3.17
2022-12-08T14:38:36.924Z,3.60
2022-12-08T14:41:08.911Z,3.50
2022-12-08T14:43:36.214Z,3.77
2022-12-08T14:46:18.562Z,4.13
2022-12-08T14:48:45.463Z,5.00
2022-12-08T14:51:12.145Z,4.80
2022-12-08T14:53:46.453Z,3.77
2022-12-08T14:56:23.537Z,4.27
2022-12-08T14:59:03.057Z,4.77
2022-12-08T15:01:30.417Z,4.13
2022-12-08T15:04:12.901Z,4.33
2022-12-08T15:07:17.421Z,4.50
2022-12-08T15:09:48.835Z,5.53
2022-12-08T15:12:15.675Z,4.70
2022-12-08T15:14:54.484Z,5.67
2022-12-08T15:17:52.415Z,6.47
2022-12-08T15:20:34.735Z,4.80
2022-12-08T15:23:02.544Z,7.27
2022-12-08T15:25:29.341Z,5.90
2022-12-08T15:27:58.945Z,5.03
2022-12-08T15:30:26.469Z,8.23
2022-12-08T15:32:55.904Z,7.70
2022-12-08T15:35:22.787Z,12.80
2022-12-08T15:37:49.451Z,9.10
2022-12-08T15:40:19.541Z,11.03
2022-12-08T15:42:46.297Z,8.53
2022-12-08T15:45:17.323Z,8.40
2022-12-08T15:47:45.148Z,6.83
2022-12-08T15:50:17.048Z,5.57
2022-12-08T15:52:44.050Z,9.10
2022-12-08T15:55:19.168Z,7.10
2022-12-08T15:58:51.250Z,5.53
2022-12-08T16:00:56.621Z,8.47
2022-12-08T16:09:13.844Z,6.77
2022-12-08T16:12:08.888Z,7.13
2022-12-08T16:17:23.599Z,5.67
2022-12-08T16:19:50.600Z,8.30
2022-12-08T16:25:22.690Z,9.33
2022-12-08T16:28:05.795Z,5.80
2022-12-08T16:30:39.669Z,8.40
2022-12-08T16:33:06.474Z,8.30
2022-12-08T16:35:33.289Z,10.40
2022-12-08T16:38:00.072Z,6.47
2022-12-08T16:40:26.816Z,9.87
2022-12-08T16:42:53.560Z,9.80
2022-12-08T16:45:24.596Z,8.37
2022-12-08T16:47:54.329Z,9.00
2022-12-08T16:50:24.809Z,12.10
2022-12-08T16:52:57.824Z,9.57
2022-12-08T16:55:24.538Z,12.33
2022-12-08T16:57:51.343Z,11.43
2022-12-08T17:00:20.782Z,8.27
2022-12-08T17:02:48.620Z,10.63
2022-12-08T17:05:17.300Z,8.47
2022-12-08T17:07:46.112Z,10.30
2022-12-08T17:10:15.885Z,11.57
2022-12-08T17:12:43.782Z,10.33
2022-12-08T17:15:13.611Z,10.10
2022-12-08T17:17:40.500Z,10.23
2022-12-08T17:20:11.766Z,7.10
2022-12-08T17:22:38.982Z,9.40
2022-12-08T17:25:06.199Z,8.13
2022-12-08T17:27:33.180Z,9.93
2022-12-08T17:29:59.904Z,8.73
2022-12-08T17:32:26.978Z,8.30
2022-12-08T17:34:54.007Z,11.97
2022-12-08T17:37:20.734Z,7.77
2022-12-08T17:39:47.422Z,6.77
2022-12-08T17:42:14.130Z,7.67
2022-12-08T17:44:40.890Z,14.33
2022-12-08T17:47:07.603Z,9.33
2022-12-08T17:49:34.656Z,9.00
2022-12-08T17:52:05.108Z,10.83
2022-12-08T17:54:31.842Z,12.53
2022-12-08T17:56:59.932Z,10.60
2022-12-08T17:59:28.182Z,12.10
2022-12-08T18:01:56.689Z,8.50
2022-12-08T18:04:24.699Z,8.23
2022-12-08T18:06:51.689Z,9.77
2022-12-08T18:09:18.779Z,9.53
2022-12-08T18:11:46.448Z,9.53
2022-12-08T18:14:14.266Z,10.13
2022-12-08T18:16:44.197Z,9.23
2022-12-08T18:19:12.646Z,11.70
2022-12-08T18:21:40.084Z,10.03
2022-12-08T18:24:07.832Z,8.37
2022-12-08T18:26:35.241Z,9.10
2022-12-08T18:29:02.046Z,9.83
2022-12-08T18:31:28.867Z,6.87
2022-12-08T18:33:55.710Z,6.27
2022-12-08T18:36:25.027Z,15.53
2022-12-08T18:38:52.656Z,16.90
2022-12-08T18:41:24.387Z,17.43
2022-12-08T18:43:51.992Z,20.50
2022-12-08T18:46:18.974Z,17.87
2022-12-08T18:48:49.118Z,13.87
2022-12-08T18:51:23.679Z,10.83
2022-12-08T18:53:51.136Z,11.77
2022-12-08T18:56:24.051Z,11.27
2022-12-08T18:58:50.876Z,9.53
2022-12-08T19:01:18.292Z,12.60
2022-12-08T19:03:58.495Z,11.37
2022-12-08T19:06:32.579Z,12.13
2022-12-08T19:08:59.416Z,29.93
2022-12-08T19:11:28.712Z,15.80
2022-12-08T19:13:56.101Z,12.47
2022-12-08T19:16:23.680Z,10.80
2022-12-08T19:18:50.598Z,9.80
2022-12-08T19:21:17.439Z,14.33
2022-12-08T19:23:44.302Z,11.60
2022-12-08T19:26:11.990Z,9.87
2022-12-08T19:28:41.084Z,12.23
2022-12-08T19:31:09.424Z,15.97
2022-12-08T19:33:37.684Z,12.07
2022-12-08T19:36:09.854Z,12.10
2022-12-08T19:38:56.673Z,8.53
2022-12-08T19:41:42.863Z,10.97
2022-12-08T19:44:41.843Z,13.03
2022-12-08T19:47:09.245Z,10.90
2022-12-08T19:49:36.138Z,10.03
2022-12-08T19:52:03.274Z,8.60
2022-12-08T19:54:30.063Z,8.67
2022-12-08T19:56:56.912Z,10.10
2022-12-08T19:59:26.256Z,8.90
2022-12-08T20:01:55.761Z,9.77
2022-12-08T20:04:24.254Z,8.03
2022-12-08T20:06:52.652Z,7.80
2022-12-08T20:09:20.596Z,6.73
2022-12-08T20:11:47.463Z,8.53
2022-12-08T20:14:14.357Z,6.47
2022-12-08T20:16:41.798Z,11.63
2022-12-08T20:19:09.356Z,10.07
2022-12-08T20:21:36.210Z,7.80
2022-12-08T20:24:04.625Z,7.03
2022-12-08T20:26:31.591Z,8.37
2022-12-08T20:28:58.309Z,10.60
2022-12-08T20:31:28.521Z,11.83
2022-12-08T20:33:55.593Z,10.20
2022-12-08T20:36:22.876Z,7.43
2022-12-08T20:38:51.911Z,6.33
2022-12-08T20:41:19.405Z,5.73
2022-12-08T20:43:47.557Z,4.70
2022-12-08T20:46:16.498Z,5.40
2022-12-08T20:48:44.310Z,5.20
2022-12-08T20:51:16.384Z,3.63
2022-12-08T20:53:43.471Z,3.53
2022-12-08T20:56:18.274Z,5.10
2022-12-08T20:58:46.059Z,5.27
2022-12-08T21:01:15.516Z,4.53
2022-12-08T21:03:43.515Z,6.13
2022-12-08T21:06:11.243Z,4.37
2022-12-08T21:08:39.082Z,7.47
2022-12-08T21:11:06.607Z,9.97
2022-12-08T21:13:33.937Z,7.30
2022-12-08T21:16:00.954Z,5.77
2022-12-08T21:18:28.279Z,5.60
2022-12-08T21:21:03.594Z,5.57
2022-12-08T21:23:30.454Z,4.70
2022-12-08T21:25:57.349Z,5.33
2022-12-08T21:28:24.384Z,6.67
2022-12-08T21:30:51.330Z,7.10
2022-12-08T21:33:18.292Z,7.97
2022-12-08T21:35:45.557Z,6.87
2022-12-08T21:38:12.464Z,6.97
2022-12-08T21:40:39.323Z,8.00
2022-12-08T21:43:06.107Z,9.23
2022-12-08T21:45:34.418Z,10.13
2022-12-08T21:48:05.719Z,9.63
2022-12-08T21:50:37.432Z,14.30
2022-12-08T21:53:04.234Z,18.20
2022-12-08T21:55:31.032Z,24.53
2022-12-08T21:58:00.768Z,27.20
2022-12-08T22:00:28.680Z,24.33
2022-12-08T22:02:55.886Z,22.87
2022-12-08T22:05:22.749Z,28.20
2022-12-08T22:07:49.946Z,27.23
2022-12-08T22:10:16.848Z,26.00
2022-12-08T22:12:43.600Z,29.40
2022-12-08T22:15:11.158Z,24.37
2022-12-08T22:17:40.467Z,26.20
2022-12-08T22:20:10.525Z,22.70
2022-12-08T22:22:37.805Z,23.27
2022-12-08T22:25:06.088Z,23.17
2022-12-08T22:27:35.792Z,23.77
2022-12-08T22:30:04.350Z,21.73
2022-12-08T22:32:32.123Z,19.83
2022-12-08T22:34:58.822Z,21.57
2022-12-08T22:37:25.519Z,17.57
2022-12-08T22:39:52.314Z,14.17
2022-12-08T22:42:19.024Z,12.47
2022-12-08T22:44:45.914Z,13.10
2022-12-08T22:47:12.784Z,9.73
2022-12-08T22:49:39.526Z,11.57
2022-12-08T22:52:06.285Z,12.37
2022-12-08T22:54:33.075Z,12.33
2022-12-08T22:56:59.710Z,11.47
2022-12-08T22:59:26.437Z,10.60
2022-12-08T23:01:54.122Z,10.87
2022-12-08T23:04:21.290Z,11.93
2022-12-08T23:06:48.262Z,10.93
2022-12-08T23:09:15.236Z,10.67
2022-12-08T23:11:42.705Z,12.07
2022-12-08T23:14:09.468Z,11.40
2022-12-08T23:16:36.835Z,11.77
2022-12-08T23:19:03.722Z,12.27
2022-12-08T23:21:30.585Z,11.37
2022-12-08T23:23:59.250Z,15.57
2022-12-08T23:26:30.830Z,10.37
2022-12-08T23:28:57.793Z,10.43
2022-12-08T23:31:25.739Z,13.37
2022-12-08T23:33:52.951Z,13.00
2022-12-08T23:36:21.106Z,13.30
2022-12-08T23:38:48.051Z,16.73
2022-12-08T23:41:16.216Z,14.43
2022-12-08T23:43:45.377Z,12.37
2022-12-08T23:46:12.244Z,13.67
2022-12-08T23:48:39.180Z,11.23
2022-12-08T23:51:06.155Z,14.57
2022-12-08T23:53:33.186Z,12.50
2022-12-08T23:56:01.793Z,13.53
2022-12-08T23:58:31.219Z,14.97
